createdAt,value
2022-08-31T00:01:20.683Z,12.45
2022-08-31T00:04:16.312Z,12.18
2022-08-31T00:06:42.796Z,12.15
2022-08-31T00:09:09.331Z,12.85
2022-08-31T00:11:36.220Z,12.43
2022-08-31T00:14:07.713Z,12.80
2022-08-31T00:16:43.379Z,12.60
2022-08-31T00:19:10.920Z,13.32
2022-08-31T00:21:39.105Z,13.75
2022-08-31T00:24:05.908Z,13.50
2022-08-31T00:26:32.728Z,13.77
2022-08-31T00:28:59.299Z,13.20
2022-08-31T00:31:25.844Z,13.65
2022-08-31T00:33:52.391Z,14.25
2022-08-31T00:36:22.112Z,14.13
2022-08-31T00:38:49.537Z,13.65
2022-08-31T00:41:19.678Z,13.70
2022-08-31T00:43:52.063Z,14.10
2022-08-31T00:46:22.992Z,14.20
2022-08-31T00:49:08.182Z,13.82
2022-08-31T00:51:41.438Z,13.95
2022-08-31T00:54:11.982Z,13.57
2022-08-31T00:56:40.960Z,13.95
2022-08-31T00:59:07.530Z,14.77
2022-08-31T01:01:34.712Z,14.35
2022-08-31T01:04:01.332Z,14.38
2022-08-31T01:06:28.002Z,13.98
2022-08-31T01:08:57.471Z,13.90
2022-08-31T01:11:24.663Z,14.50
2022-08-31T01:13:51.543Z,14.75
2022-08-31T01:16:25.540Z,14.70
2022-08-31T01:18:54.315Z,14.93
2022-08-31T01:21:26.391Z,15.27
2022-08-31T01:23:56.944Z,15.27
2022-08-31T01:26:26.801Z,15.65
2022-08-31T01:28:57.348Z,16.00
2022-08-31T01:31:38.343Z,15.80
2022-08-31T01:34:05.187Z,16.02
2022-08-31T01:36:34.282Z,16.08
2022-08-31T01:39:00.735Z,16.33
2022-08-31T01:41:27.360Z,16.10
2022-08-31T01:43:54.596Z,16.40
2022-08-31T01:46:21.673Z,16.98
2022-08-31T01:48:49.214Z,16.92
2022-08-31T01:51:18.547Z,16.85
2022-08-31T01:53:48.650Z,16.65
2022-08-31T01:56:18.526Z,17.17
2022-08-31T01:58:45.277Z,17.05
2022-08-31T02:01:17.286Z,16.33
2022-08-31T02:03:59.394Z,16.30
2022-08-31T02:06:26.307Z,16.40
2022-08-31T02:08:53.271Z,17.15
2022-08-31T02:11:19.788Z,17.02
2022-08-31T02:13:46.227Z,17.05
2022-08-31T02:16:12.764Z,17.38
2022-08-31T02:18:39.276Z,17.45
2022-08-31T02:21:06.071Z,17.13
2022-08-31T02:23:32.839Z,16.83
2022-08-31T02:25:59.854Z,16.92
2022-08-31T02:28:26.805Z,17.02
2022-08-31T02:30:53.310Z,16.95
2022-08-31T02:33:20.009Z,17.52
2022-08-31T02:35:46.545Z,16.98
2022-08-31T02:38:16.719Z,16.20
2022-08-31T02:40:45.031Z,16.85
2022-08-31T02:43:16.098Z,24.75
2022-08-31T02:45:55.722Z,20.85
2022-08-31T02:48:22.463Z,19.17
2022-08-31T02:50:51.428Z,17.65
2022-08-31T02:53:21.831Z,17.60
2022-08-31T02:55:48.986Z,18.30
2022-08-31T02:58:19.592Z,17.70
2022-08-31T03:00:48.789Z,17.73
2022-08-31T03:03:15.457Z,17.75
2022-08-31T03:05:42.381Z,17.67
2022-08-31T03:08:09.323Z,17.58
2022-08-31T03:10:36.081Z,17.67
2022-08-31T03:13:02.922Z,17.25
2022-08-31T03:15:29.971Z,17.52
2022-08-31T03:17:56.669Z,17.45
2022-08-31T03:20:25.341Z,18.17
2022-08-31T03:22:51.840Z,16.85
2022-08-31T03:25:19.793Z,17.95
2022-08-31T03:27:46.286Z,17.02
2022-08-31T03:30:15.715Z,16.80
2022-08-31T03:32:42.627Z,18.00
2022-08-31T03:35:09.312Z,17.08
2022-08-31T03:37:35.923Z,17.02
2022-08-31T03:40:02.774Z,17.30
2022-08-31T03:42:29.351Z,17.33
2022-08-31T03:44:58.609Z,17.23
2022-08-31T03:47:25.180Z,17.65
2022-08-31T03:49:54.956Z,17.88
2022-08-31T03:52:21.955Z,17.88
2022-08-31T03:54:49.398Z,17.58
2022-08-31T03:57:15.914Z,18.05
2022-08-31T03:59:42.453Z,18.98
2022-08-31T04:02:08.918Z,18.08
2022-08-31T04:04:35.460Z,18.42
2022-08-31T04:07:01.997Z,19.55
2022-08-31T04:09:28.966Z,18.38
2022-08-31T04:11:55.686Z,18.00
2022-08-31T04:14:22.227Z,18.80
2022-08-31T04:16:48.847Z,20.85
2022-08-31T04:19:16.724Z,19.40
2022-08-31T04:21:44.483Z,18.67
2022-08-31T04:24:11.990Z,18.13
2022-08-31T04:26:40.540Z,19.63
2022-08-31T04:29:12.368Z,19.15
2022-08-31T04:31:39.710Z,19.50
2022-08-31T04:34:06.328Z,19.25
2022-08-31T04:36:33.306Z,19.33
2022-08-31T04:39:02.857Z,19.30
2022-08-31T04:41:31.776Z,19.50
2022-08-31T04:44:00.577Z,19.55
2022-08-31T04:46:28.990Z,19.80
2022-08-31T04:48:56.726Z,18.90
2022-08-31T04:51:28.622Z,20.25
2022-08-31T04:53:56.182Z,19.40
2022-08-31T04:56:30.643Z,20.20
2022-08-31T04:59:00.493Z,19.45
2022-08-31T05:01:29.540Z,19.77
2022-08-31T05:04:06.967Z,19.70
2022-08-31T05:06:35.765Z,20.02
2022-08-31T05:09:06.051Z,20.85
2022-08-31T05:14:01.957Z,20.15
2022-08-31T05:16:30.703Z,20.90
2022-08-31T05:18:58.986Z,21.10
2022-08-31T05:21:29.508Z,21.98
2022-08-31T05:23:58.762Z,21.13
2022-08-31T05:26:30.279Z,21.70
2022-08-31T05:28:59.165Z,22.40
2022-08-31T05:31:29.923Z,21.98
2022-08-31T05:33:58.181Z,21.63
2022-08-31T05:36:25.664Z,22.55
2022-08-31T05:38:56.558Z,22.60
2022-08-31T05:41:28.168Z,22.40
2022-08-31T05:43:54.661Z,22.77
2022-08-31T05:46:21.091Z,24.30
2022-08-31T05:48:49.441Z,23.23
2022-08-31T05:51:18.201Z,23.75
2022-08-31T05:53:45.762Z,23.95
2022-08-31T05:56:19.193Z,23.60
2022-08-31T05:58:46.789Z,24.70
2022-08-31T06:01:19.249Z,24.73
2022-08-31T06:03:46.898Z,23.27
2022-08-31T06:06:14.455Z,23.30
2022-08-31T06:08:41.777Z,23.75
2022-08-31T06:11:14.357Z,24.30
2022-08-31T06:13:41.889Z,22.38
2022-08-31T06:16:10.012Z,22.02
2022-08-31T06:18:38.566Z,20.95
2022-08-31T06:21:09.041Z,20.63
2022-08-31T06:23:42.424Z,20.85
2022-08-31T06:26:13.516Z,19.42
2022-08-31T06:28:40.881Z,19.10
2022-08-31T06:31:12.749Z,18.65
2022-08-31T06:33:40.200Z,17.67
2022-08-31T06:36:14.787Z,16.55
2022-08-31T06:38:43.393Z,15.65
2022-08-31T06:41:17.774Z,15.95
2022-08-31T06:43:45.633Z,14.43
2022-08-31T06:46:14.192Z,15.20
2022-08-31T06:48:41.668Z,14.20
2022-08-31T06:51:09.508Z,13.75
2022-08-31T06:53:40.408Z,13.85
2022-08-31T06:56:20.309Z,13.02
2022-08-31T06:58:53.727Z,14.48
2022-08-31T07:01:36.135Z,12.77
2022-08-31T07:04:07.304Z,12.55
2022-08-31T07:06:39.496Z,12.68
2022-08-31T07:09:08.780Z,11.75
2022-08-31T07:11:43.550Z,11.68
2022-08-31T07:14:13.062Z,11.65
2022-08-31T07:16:39.890Z,11.70
2022-08-31T07:19:07.479Z,10.70
2022-08-31T07:21:39.751Z,11.25
2022-08-31T07:24:07.522Z,11.50
2022-08-31T07:26:46.294Z,11.40
2022-08-31T07:29:14.943Z,11.68
2022-08-31T07:31:46.459Z,11.70
2022-08-31T07:34:20.595Z,11.73
2022-08-31T07:37:06.433Z,11.07
2022-08-31T07:39:53.592Z,11.02
2022-08-31T07:42:24.890Z,11.90
2022-08-31T07:44:53.842Z,11.73
2022-08-31T07:47:22.580Z,12.50
2022-08-31T07:49:52.625Z,11.18
2022-08-31T07:52:25.523Z,10.95
2022-08-31T07:54:54.430Z,10.50
2022-08-31T07:57:25.720Z,10.27
2022-08-31T08:00:09.004Z,10.40
2022-08-31T08:02:39.866Z,10.40
2022-08-31T08:05:09.359Z,10.40
2022-08-31T08:07:37.412Z,10.57
2022-08-31T08:10:07.460Z,10.23
2022-08-31T08:12:36.341Z,10.10
2022-08-31T08:15:06.565Z,10.45
2022-08-31T08:17:33.815Z,10.43
2022-08-31T08:20:00.931Z,9.82
2022-08-31T08:22:50.787Z,9.98
2022-08-31T08:25:16.675Z,10.20
2022-08-31T08:27:43.535Z,10.48
2022-08-31T08:30:15.895Z,10.30
2022-08-31T08:32:42.944Z,9.85
2022-08-31T08:35:11.027Z,10.55
2022-08-31T08:37:57.934Z,9.80
2022-08-31T08:40:42.367Z,9.75
2022-08-31T08:43:12.939Z,9.70
2022-08-31T08:45:40.226Z,10.13
2022-08-31T08:48:09.339Z,9.90
2022-08-31T08:50:38.903Z,10.32
2022-08-31T08:53:10.589Z,10.57
2022-08-31T08:55:40.117Z,9.60
2022-08-31T08:58:10.560Z,10.02
2022-08-31T09:00:46.593Z,10.38
2022-08-31T09:03:30.812Z,9.45
2022-08-31T09:06:12.779Z,10.20
2022-08-31T09:09:18.149Z,9.95
2022-08-31T09:12:11.403Z,9.50
2022-08-31T09:14:53.559Z,9.73
2022-08-31T09:17:59.618Z,9.05
2022-08-31T09:20:28.183Z,8.70
2022-08-31T09:22:57.260Z,9.23
2022-08-31T09:25:32.739Z,8.70
2022-08-31T09:28:07.428Z,9.10
2022-08-31T09:30:40.017Z,8.90
2022-08-31T09:33:07.622Z,8.85
2022-08-31T09:35:41.226Z,9.10
2022-08-31T09:38:11.283Z,9.18
2022-08-31T09:40:49.801Z,9.18
2022-08-31T09:43:41.181Z,9.10
2022-08-31T09:46:09.649Z,9.13
2022-08-31T09:48:58.372Z,8.75
2022-08-31T09:51:33.846Z,9.05
2022-08-31T09:54:25.486Z,9.05
2022-08-31T09:56:56.382Z,9.13
2022-08-31T09:59:41.972Z,9.27
2022-08-31T10:02:13.290Z,9.18
2022-08-31T10:04:55.007Z,8.50
2022-08-31T10:07:37.651Z,8.80
2022-08-31T10:10:30.454Z,8.00
2022-08-31T10:13:01.553Z,8.60
2022-08-31T10:15:36.687Z,8.70
2022-08-31T10:18:14.052Z,8.50
2022-08-31T10:20:46.506Z,8.57
2022-08-31T10:23:19.204Z,8.50
2022-08-31T10:25:52.671Z,8.50
2022-08-31T10:28:36.581Z,8.50
2022-08-31T10:31:10.209Z,8.63
2022-08-31T10:34:05.945Z,8.50
2022-08-31T10:36:37.681Z,8.45
2022-08-31T10:39:29.106Z,8.30
2022-08-31T10:41:55.925Z,8.10
2022-08-31T10:44:36.717Z,7.97
2022-08-31T10:47:05.777Z,8.05
2022-08-31T10:49:35.417Z,8.30
2022-08-31T10:52:18.316Z,8.32
2022-08-31T10:55:06.806Z,8.18
2022-08-31T10:57:49.685Z,8.20
2022-08-31T11:00:41.401Z,8.77
2022-08-31T11:03:35.398Z,8.32
2022-08-31T11:06:30.902Z,8.80
2022-08-31T11:09:22.126Z,9.20
2022-08-31T11:12:13.539Z,8.80
2022-08-31T11:15:12.091Z,8.80
2022-08-31T11:17:50.172Z,8.40
2022-08-31T11:20:22.553Z,8.50
2022-08-31T11:23:05.570Z,8.50
2022-08-31T11:25:50.650Z,8.70
2022-08-31T11:28:32.830Z,9.20
2022-08-31T11:31:01.804Z,9.20
2022-08-31T11:33:31.222Z,9.10
2022-08-31T11:36:10.003Z,9.10
2022-08-31T11:38:53.343Z,8.95
2022-08-31T11:41:33.579Z,17.67
2022-08-31T11:44:04.583Z,9.20
2022-08-31T11:46:34.038Z,9.10
2022-08-31T11:49:00.671Z,8.82
2022-08-31T11:51:38.617Z,9.02
2022-08-31T11:54:14.780Z,9.10
2022-08-31T11:56:45.624Z,9.00
2022-08-31T11:59:40.005Z,9.00
2022-08-31T12:02:22.918Z,9.07
2022-08-31T12:04:52.252Z,8.30
2022-08-31T12:07:28.264Z,8.68
2022-08-31T12:10:14.840Z,8.55
2022-08-31T12:13:09.363Z,8.70
2022-08-31T12:15:55.213Z,8.55
2022-08-31T12:18:49.621Z,8.40
2022-08-31T12:22:02.817Z,8.52
2022-08-31T12:25:01.962Z,8.63
2022-08-31T12:27:38.649Z,10.90
2022-08-31T12:30:31.383Z,11.00
2022-08-31T12:33:04.205Z,11.00
2022-08-31T12:35:32.820Z,10.73
2022-08-31T12:38:02.839Z,10.05
2022-08-31T12:40:33.738Z,9.95
2022-08-31T12:43:06.405Z,9.68
2022-08-31T12:45:35.806Z,9.70
2022-08-31T12:48:23.435Z,9.80
2022-08-31T12:51:03.945Z,9.63
2022-08-31T12:53:44.283Z,9.30
2022-08-31T12:56:25.952Z,9.13
2022-08-31T12:59:11.064Z,9.45
2022-08-31T13:01:45.440Z,9.10
2022-08-31T13:04:15.686Z,9.30
2022-08-31T13:06:45.146Z,9.57
2022-08-31T13:09:23.983Z,9.15
2022-08-31T13:11:53.249Z,9.90
2022-08-31T13:14:26.925Z,9.52
2022-08-31T13:16:56.274Z,9.40
2022-08-31T13:19:27.374Z,9.68
2022-08-31T13:22:07.384Z,9.65
2022-08-31T13:24:41.296Z,9.40
2022-08-31T13:27:09.718Z,9.73
2022-08-31T13:29:44.161Z,9.32
2022-08-31T13:32:30.717Z,8.98
2022-08-31T13:35:04.155Z,9.00
2022-08-31T13:37:37.759Z,8.73
2022-08-31T13:40:10.564Z,8.20
2022-08-31T13:42:42.765Z,8.77
2022-08-31T13:45:27.336Z,8.90
2022-08-31T13:47:58.277Z,8.80
2022-08-31T13:50:32.889Z,8.77
2022-08-31T13:53:25.955Z,8.60
2022-08-31T13:55:50.374Z,8.90
2022-08-31T13:58:43.183Z,8.43
2022-08-31T14:01:25.136Z,8.40
2022-08-31T14:03:59.176Z,8.85
2022-08-31T14:06:29.676Z,8.65
2022-08-31T14:09:16.556Z,8.70
2022-08-31T14:11:53.270Z,8.85
2022-08-31T14:14:39.839Z,8.88
2022-08-31T14:17:08.406Z,9.00
2022-08-31T14:19:39.321Z,11.93
2022-08-31T14:22:32.389Z,8.15
2022-08-31T14:25:00.665Z,8.68
2022-08-31T14:27:29.091Z,8.73
2022-08-31T14:29:55.817Z,8.73
2022-08-31T14:32:22.715Z,9.13
2022-08-31T14:34:50.995Z,9.25
2022-08-31T14:37:29.925Z,9.15
2022-08-31T14:40:07.485Z,9.00
2022-08-31T14:42:37.546Z,9.10
2022-08-31T14:45:08.268Z,8.80
2022-08-31T14:47:43.893Z,8.85
2022-08-31T14:50:13.296Z,9.50
2022-08-31T14:52:44.835Z,9.15
2022-08-31T14:55:13.804Z,8.95
2022-08-31T14:57:43.844Z,8.77
2022-08-31T15:00:15.040Z,9.18
2022-08-31T15:02:42.009Z,8.88
2022-08-31T15:05:09.787Z,8.55
2022-08-31T15:07:39.192Z,8.77
2022-08-31T15:10:07.953Z,9.05
2022-08-31T15:12:35.366Z,8.90
2022-08-31T15:15:01.864Z,8.50
2022-08-31T15:17:30.295Z,8.68
2022-08-31T15:19:57.324Z,8.70
2022-08-31T15:22:26.388Z,8.88
2022-08-31T15:24:54.346Z,8.70
2022-08-31T15:27:22.457Z,8.68
2022-08-31T15:29:51.701Z,8.60
2022-08-31T15:32:18.767Z,11.07
2022-08-31T15:34:53.444Z,9.32
2022-08-31T15:37:21.417Z,8.82
2022-08-31T15:39:49.297Z,8.70
2022-08-31T15:42:20.872Z,8.43
2022-08-31T15:44:55.984Z,8.98
2022-08-31T15:47:47.019Z,8.70
2022-08-31T15:50:19.336Z,8.30
2022-08-31T15:52:51.628Z,8.88
2022-08-31T15:55:23.174Z,9.07
2022-08-31T15:57:49.886Z,8.93
2022-08-31T16:00:16.372Z,9.70
2022-08-31T16:02:44.256Z,8.82
2022-08-31T16:05:12.583Z,8.52
2022-08-31T16:07:40.311Z,8.38
2022-08-31T16:10:19.823Z,9.05
2022-08-31T16:12:46.731Z,8.90
2022-08-31T16:15:15.782Z,8.68
2022-08-31T16:17:42.895Z,9.48
2022-08-31T16:20:11.820Z,8.70
2022-08-31T16:22:39.058Z,8.65
2022-08-31T16:25:06.760Z,8.40
2022-08-31T16:27:37.737Z,8.10
2022-08-31T16:30:04.641Z,8.95
2022-08-31T16:32:31.161Z,8.80
2022-08-31T16:34:58.311Z,8.60
2022-08-31T16:37:25.175Z,8.18
2022-08-31T16:39:51.871Z,8.10
2022-08-31T16:42:18.426Z,8.07
2022-08-31T16:44:46.934Z,8.20
2022-08-31T16:47:16.926Z,8.48
2022-08-31T16:49:44.009Z,8.30
2022-08-31T16:52:26.574Z,8.27
2022-08-31T16:54:55.926Z,8.40
2022-08-31T16:57:28.276Z,8.55
2022-08-31T16:59:56.985Z,8.85
2022-08-31T17:02:24.634Z,9.30
2022-08-31T17:04:53.419Z,8.52
2022-08-31T17:07:23.084Z,9.32
2022-08-31T17:09:50.086Z,9.18
2022-08-31T17:12:20.577Z,9.20
2022-08-31T17:14:51.346Z,9.18
2022-08-31T17:17:21.837Z,9.00
2022-08-31T17:19:49.852Z,9.57
2022-08-31T17:22:25.815Z,9.40
2022-08-31T17:24:56.723Z,10.18
2022-08-31T17:27:24.506Z,9.63
2022-08-31T17:29:52.695Z,9.35
2022-08-31T17:32:23.253Z,9.15
2022-08-31T17:34:51.578Z,9.60
2022-08-31T17:37:32.420Z,9.60
2022-08-31T17:39:59.413Z,9.60
2022-08-31T17:42:26.951Z,9.88
2022-08-31T17:44:54.463Z,9.85
2022-08-31T17:47:23.278Z,9.90
2022-08-31T17:49:51.167Z,9.57
2022-08-31T17:52:20.341Z,9.77
2022-08-31T17:54:46.966Z,9.53
2022-08-31T17:57:16.471Z,9.20
2022-08-31T17:59:46.440Z,10.00
2022-08-31T18:02:17.430Z,9.55
2022-08-31T18:04:44.444Z,9.70
2022-08-31T18:07:11.734Z,9.48
2022-08-31T18:09:40.982Z,9.30
2022-08-31T18:12:08.686Z,11.43
2022-08-31T18:14:37.972Z,8.93
2022-08-31T18:17:08.121Z,9.30
2022-08-31T18:22:02.126Z,9.20
2022-08-31T18:24:34.045Z,9.25
2022-08-31T18:27:03.837Z,9.18
2022-08-31T18:29:34.148Z,8.70
2022-08-31T18:32:05.224Z,9.50
2022-08-31T18:34:35.410Z,9.32
2022-08-31T18:37:02.300Z,9.10
2022-08-31T18:39:51.234Z,9.30
2022-08-31T18:42:38.342Z,9.27
2022-08-31T18:45:20.764Z,9.20
2022-08-31T18:48:20.769Z,9.20
2022-08-31T18:50:45.113Z,9.05
2022-08-31T18:53:15.608Z,8.82
2022-08-31T18:55:42.845Z,8.90
2022-08-31T18:58:10.114Z,8.98
2022-08-31T19:00:37.143Z,8.77
2022-08-31T19:03:04.117Z,9.40
2022-08-31T19:05:32.510Z,9.07
2022-08-31T19:08:00.342Z,9.75
2022-08-31T19:10:27.532Z,9.40
2022-08-31T19:12:57.123Z,9.30
2022-08-31T19:15:35.857Z,9.32
2022-08-31T19:18:05.250Z,9.50
2022-08-31T19:20:33.447Z,9.20
2022-08-31T19:23:00.458Z,9.00
2022-08-31T19:25:27.802Z,9.45
2022-08-31T19:27:55.692Z,9.40
2022-08-31T19:30:27.892Z,9.40
2022-08-31T19:32:56.141Z,9.48
2022-08-31T19:35:22.754Z,9.93
2022-08-31T19:37:51.822Z,10.02
2022-08-31T19:40:19.139Z,9.85
2022-08-31T19:45:45.080Z,10.20
2022-08-31T19:48:12.531Z,9.25
2022-08-31T19:50:41.900Z,9.57
2022-08-31T19:53:12.037Z,9.75
2022-08-31T19:55:50.145Z,9.50
2022-08-31T19:58:18.222Z,9.23
2022-08-31T20:00:44.810Z,9.30
2022-08-31T20:05:42.007Z,9.15
2022-08-31T20:08:08.683Z,9.15
2022-08-31T20:10:39.927Z,9.75
2022-08-31T20:13:07.275Z,9.25
2022-08-31T20:15:37.865Z,9.20
2022-08-31T20:18:05.885Z,8.63
2022-08-31T20:20:36.031Z,9.10
2022-08-31T20:23:03.318Z,9.18
2022-08-31T20:25:29.894Z,8.93
2022-08-31T20:27:57.538Z,9.45
2022-08-31T20:30:23.932Z,9.60
2022-08-31T20:32:50.378Z,8.98
2022-08-31T20:35:18.239Z,9.05
2022-08-31T20:37:44.839Z,9.50
2022-08-31T20:40:16.792Z,9.02
2022-08-31T20:42:43.329Z,9.15
2022-08-31T20:45:10.006Z,9.00
2022-08-31T20:47:55.219Z,8.90
2022-08-31T20:50:21.694Z,9.25
2022-08-31T20:52:48.124Z,9.27
2022-08-31T20:55:14.593Z,9.00
2022-08-31T20:57:41.060Z,9.30
2022-08-31T21:00:10.237Z,9.43
2022-08-31T21:02:39.653Z,9.43
2022-08-31T21:05:36.646Z,9.15
2022-08-31T21:07:57.761Z,9.52
2022-08-31T21:10:37.125Z,9.30
2022-08-31T21:13:10.316Z,9.50
2022-08-31T21:15:45.308Z,10.13
2022-08-31T21:18:17.555Z,8.98
2022-08-31T21:20:46.118Z,8.82
2022-08-31T21:23:13.445Z,8.82
2022-08-31T21:25:43.836Z,9.60
2022-08-31T21:28:16.982Z,8.90
2022-08-31T21:30:45.309Z,8.60
2022-08-31T21:33:11.879Z,9.07
2022-08-31T21:35:38.415Z,8.80
2022-08-31T21:38:04.944Z,8.88
2022-08-31T21:40:31.445Z,9.18
2022-08-31T21:42:58.335Z,8.95
2022-08-31T21:45:25.215Z,8.88
2022-08-31T21:47:51.742Z,9.23
2022-08-31T21:50:18.276Z,9.30
2022-08-31T21:52:44.715Z,9.00
2022-08-31T21:55:13.589Z,8.93
2022-08-31T21:57:40.786Z,8.75
2022-08-31T22:00:13.665Z,9.38
2022-08-31T22:02:45.289Z,8.60
2022-08-31T22:05:13.239Z,9.10
2022-08-31T22:07:40.061Z,9.63
2022-08-31T22:10:07.407Z,9.20
2022-08-31T22:12:34.211Z,9.30
2022-08-31T22:15:05.235Z,9.30
2022-08-31T22:17:55.745Z,9.18
2022-08-31T22:20:19.898Z,9.18
2022-08-31T22:22:46.933Z,9.00
2022-08-31T22:25:13.710Z,9.07
2022-08-31T22:27:40.165Z,9.07
2022-08-31T22:30:07.317Z,9.00
2022-08-31T22:32:34.018Z,9.30
2022-08-31T22:35:01.126Z,8.75
2022-08-31T22:37:27.604Z,8.93
2022-08-31T22:39:54.973Z,8.88
2022-08-31T22:42:21.423Z,9.23
2022-08-31T22:44:48.099Z,9.85
2022-08-31T22:47:14.647Z,9.15
2022-08-31T22:49:41.041Z,9.02
2022-08-31T22:52:07.589Z,8.75
2022-08-31T22:54:35.242Z,9.30
2022-08-31T22:57:01.799Z,9.23
2022-08-31T22:59:28.603Z,8.80
2022-08-31T23:02:03.208Z,8.93
2022-08-31T23:04:33.308Z,8.82
2022-08-31T23:07:01.423Z,9.40
2022-08-31T23:09:30.843Z,9.25
2022-08-31T23:11:59.935Z,9.60
2022-08-31T23:14:27.674Z,9.75
2022-08-31T23:17:00.681Z,9.52
2022-08-31T23:19:36.575Z,9.15
2022-08-31T23:22:09.126Z,9.57
2022-08-31T23:24:46.291Z,9.30
2022-08-31T23:27:15.174Z,9.77
2022-08-31T23:29:48.048Z,10.07
2022-08-31T23:32:18.046Z,9.48
2022-08-31T23:34:46.585Z,9.60
2022-08-31T23:37:14.212Z,9.70
2022-08-31T23:39:45.888Z,9.65
2022-08-31T23:42:15.161Z,9.73
2022-08-31T23:44:43.963Z,9.90
2022-08-31T23:47:17.004Z,9.95
2022-08-31T23:49:45.807Z,9.88
2022-08-31T23:52:18.849Z,9.70
2022-08-31T23:54:49.449Z,9.82
2022-08-31T23:57:32.758Z,9.93
